createdAt,value
2019-06-15T00:01:25.978Z,20.70
2019-06-15T00:03:57.175Z,20.80
2019-06-15T00:06:28.580Z,20.80
2019-06-15T00:08:59.905Z,20.70
2019-06-15T00:11:31.257Z,20.80
2019-06-15T00:14:02.682Z,20.60
2019-06-15T00:16:34.105Z,20.60
2019-06-15T00:19:05.470Z,20.50
2019-06-15T00:21:37.040Z,20.40
2019-06-15T00:24:08.416Z,20.40
2019-06-15T00:26:39.706Z,20.50
2019-06-15T00:29:10.942Z,20.50
2019-06-15T00:31:42.128Z,20.60
2019-06-15T00:34:13.461Z,20.50
2019-06-15T00:36:44.660Z,20.40
2019-06-15T00:39:15.922Z,20.30
2019-06-15T00:41:47.280Z,20.40
2019-06-15T00:44:18.321Z,20.40
2019-06-15T00:46:52.988Z,20.30
2019-06-15T00:49:24.293Z,20.30
2019-06-15T00:51:55.486Z,20.20
2019-06-15T00:54:26.748Z,20.20
2019-06-15T00:56:58.000Z,20.20
2019-06-15T00:59:29.222Z,20.10
2019-06-15T01:02:00.824Z,20.20
2019-06-15T01:04:32.540Z,20.40
2019-06-15T01:07:04.038Z,20.40
2019-06-15T01:09:35.462Z,20.40
2019-06-15T01:12:06.771Z,20.50
2019-06-15T01:14:38.035Z,20.30
2019-06-15T01:17:09.489Z,20.20
2019-06-15T01:19:40.775Z,20.10
2019-06-15T01:22:11.953Z,20.00
2019-06-15T01:24:43.312Z,20.10
2019-06-15T01:27:14.634Z,20.00
2019-06-15T01:29:46.370Z,20.00
2019-06-15T01:32:17.729Z,20.00
2019-06-15T01:34:49.278Z,19.80
2019-06-15T01:37:20.256Z,19.80
2019-06-15T01:39:51.587Z,19.80
2019-06-15T01:42:22.815Z,19.70
2019-06-15T01:44:54.035Z,19.60
2019-06-15T01:47:25.303Z,19.50
2019-06-15T01:49:56.435Z,19.40
2019-06-15T01:52:27.865Z,19.40
2019-06-15T01:54:59.092Z,19.40
2019-06-15T01:57:30.846Z,19.30
2019-06-15T02:00:02.449Z,19.30
2019-06-15T02:02:34.014Z,19.30
2019-06-15T02:05:06.859Z,19.30
2019-06-15T02:07:37.992Z,19.30
2019-06-15T02:10:09.795Z,19.30
2019-06-15T02:12:40.867Z,19.20
2019-06-15T02:15:12.641Z,19.30
2019-06-15T02:17:43.735Z,19.30
2019-06-15T02:20:15.364Z,19.40
2019-06-15T02:22:46.714Z,19.40
2019-06-15T02:25:35.454Z,19.40
2019-06-15T02:27:57.344Z,19.30
2019-06-15T02:30:29.909Z,19.30
2019-06-15T02:33:01.317Z,19.30
2019-06-15T02:35:34.099Z,19.30
2019-06-15T02:38:05.477Z,19.20
2019-06-15T02:40:37.111Z,19.40
2019-06-15T02:43:08.650Z,19.40
2019-06-15T02:45:40.398Z,19.40
2019-06-15T02:48:15.413Z,19.40
2019-06-15T02:50:46.518Z,19.40
2019-06-15T02:53:17.348Z,19.40
2019-06-15T02:55:50.954Z,19.50
2019-06-15T02:58:21.373Z,19.50
2019-06-15T03:01:01.124Z,19.50
2019-06-15T03:03:32.416Z,19.60
2019-06-15T03:06:08.060Z,19.60
2019-06-15T03:08:39.992Z,19.50
2019-06-15T03:11:11.233Z,19.50
2019-06-15T03:13:43.091Z,19.70
2019-06-15T03:16:14.500Z,19.70
2019-06-15T03:18:45.876Z,19.50
2019-06-15T03:21:17.077Z,19.60
2019-06-15T03:23:48.356Z,19.70
2019-06-15T03:26:19.275Z,19.60
2019-06-15T03:28:51.524Z,19.50
2019-06-15T03:31:22.981Z,19.50
2019-06-15T03:33:54.118Z,19.60
2019-06-15T03:36:25.371Z,19.60
2019-06-15T03:38:56.798Z,19.60
2019-06-15T03:41:28.124Z,19.50
2019-06-15T03:43:59.612Z,19.50
2019-06-15T03:46:31.068Z,19.40
2019-06-15T03:49:02.423Z,19.40
2019-06-15T03:51:33.756Z,19.50
2019-06-15T03:54:04.996Z,19.50
2019-06-15T03:56:36.309Z,19.40
2019-06-15T03:59:08.557Z,19.40
2019-06-15T04:01:44.842Z,19.40
2019-06-15T04:04:16.670Z,19.40
2019-06-15T04:06:47.776Z,19.40
2019-06-15T04:09:19.024Z,19.40
2019-06-15T04:11:50.701Z,19.40
2019-06-15T04:14:21.815Z,19.40
2019-06-15T04:16:53.248Z,19.30
2019-06-15T04:19:24.242Z,19.20
2019-06-15T04:21:55.480Z,19.20
2019-06-15T04:24:26.681Z,19.20
2019-06-15T04:26:58.010Z,19.30
2019-06-15T04:29:29.324Z,19.30
2019-06-15T04:32:00.825Z,19.30
2019-06-15T04:34:32.219Z,19.40
2019-06-15T04:37:03.597Z,19.40
2019-06-15T04:39:34.961Z,19.30
2019-06-15T04:42:06.388Z,19.20
2019-06-15T04:44:37.598Z,19.30
2019-06-15T04:47:08.833Z,19.30
2019-06-15T04:49:40.240Z,19.30
2019-06-15T04:52:13.944Z,19.30
2019-06-15T04:54:45.351Z,19.30
2019-06-15T04:57:16.838Z,19.20
2019-06-15T04:59:48.073Z,19.30
2019-06-15T05:02:18.867Z,19.30
2019-06-15T05:04:50.309Z,19.20
2019-06-15T05:07:21.251Z,19.10
2019-06-15T05:09:52.790Z,19.10
2019-06-15T05:12:24.187Z,19.20
2019-06-15T05:14:56.500Z,19.40
2019-06-15T05:17:27.818Z,19.30
2019-06-15T05:19:59.054Z,19.40
2019-06-15T05:22:30.321Z,19.50
2019-06-15T05:25:01.441Z,19.50
2019-06-15T05:27:32.710Z,19.60
2019-06-15T05:30:04.569Z,19.60
2019-06-15T05:32:36.884Z,19.60
2019-06-15T05:35:08.474Z,19.60
2019-06-15T05:37:39.829Z,19.70
2019-06-15T05:40:12.220Z,19.50
2019-06-15T05:42:44.128Z,19.60
2019-06-15T05:45:16.333Z,19.50
2019-06-15T05:47:47.417Z,19.50
2019-06-15T05:50:22.551Z,19.50
2019-06-15T05:52:53.805Z,19.50
2019-06-15T05:55:24.730Z,19.40
2019-06-15T05:57:56.391Z,19.50
2019-06-15T06:00:28.501Z,19.60
2019-06-15T06:03:00.945Z,19.70
2019-06-15T06:05:32.079Z,19.90
2019-06-15T06:08:03.395Z,19.90
2019-06-15T06:10:34.656Z,20.10
2019-06-15T06:13:06.907Z,20.30
2019-06-15T06:15:40.685Z,20.40
2019-06-15T06:18:12.172Z,20.40
2019-06-15T06:20:43.415Z,20.40
2019-06-15T06:23:15.819Z,20.50
2019-06-15T06:25:47.017Z,20.60
2019-06-15T06:28:19.130Z,20.60
2019-06-15T06:30:51.640Z,20.80
2019-06-15T06:33:23.042Z,20.90
2019-06-15T06:35:54.251Z,21.00
2019-06-15T06:38:25.343Z,21.10
2019-06-15T06:40:56.728Z,21.10
2019-06-15T06:43:47.464Z,21.20
2019-06-15T06:46:18.836Z,21.20
2019-06-15T06:48:50.072Z,21.30
2019-06-15T06:51:21.513Z,21.40
2019-06-15T06:53:52.737Z,21.50
2019-06-15T06:56:24.538Z,21.60
2019-06-15T06:58:56.038Z,21.60
2019-06-15T07:01:27.418Z,21.70
2019-06-15T07:03:58.976Z,21.70
2019-06-15T07:06:30.368Z,21.90
2019-06-15T07:09:01.844Z,22.00
2019-06-15T07:11:34.265Z,22.10
2019-06-15T07:14:05.700Z,22.20
2019-06-15T07:16:37.076Z,22.20
2019-06-15T07:19:08.572Z,22.30
2019-06-15T07:21:40.090Z,22.30
2019-06-15T07:24:11.476Z,22.50
2019-06-15T07:26:42.974Z,22.50
2019-06-15T07:29:14.376Z,22.60
2019-06-15T07:31:45.559Z,22.60
2019-06-15T07:34:17.218Z,22.50
2019-06-15T07:36:48.489Z,22.40
2019-06-15T07:39:19.737Z,22.50
2019-06-15T07:41:51.158Z,22.70
2019-06-15T07:44:22.666Z,22.80
2019-06-15T07:46:53.968Z,22.90
2019-06-15T07:49:25.259Z,22.90
2019-06-15T07:52:00.697Z,22.60
2019-06-15T07:54:32.469Z,22.60
2019-06-15T07:57:03.797Z,22.80
2019-06-15T07:59:35.069Z,22.80
2019-06-15T08:02:06.499Z,22.90
2019-06-15T08:04:38.429Z,23.00
2019-06-15T08:07:10.283Z,23.20
2019-06-15T08:09:41.650Z,23.20
2019-06-15T08:12:13.175Z,22.70
2019-06-15T08:14:44.659Z,23.20
2019-06-15T08:17:16.031Z,23.20
2019-06-15T08:19:47.754Z,23.50
2019-06-15T08:22:20.106Z,23.10
2019-06-15T08:24:51.569Z,23.50
2019-06-15T08:27:22.910Z,23.50
2019-06-15T08:29:54.225Z,23.60
2019-06-15T08:32:25.158Z,23.30
2019-06-15T08:34:56.373Z,23.60
2019-06-15T08:37:28.567Z,23.80
2019-06-15T08:39:59.854Z,23.70
2019-06-15T08:42:31.091Z,23.80
2019-06-15T08:45:02.300Z,23.90
2019-06-15T08:47:33.388Z,24.10
2019-06-15T08:50:04.861Z,24.00
2019-06-15T08:52:40.304Z,24.00
2019-06-15T08:55:12.392Z,24.10
2019-06-15T08:57:43.721Z,24.30
2019-06-15T09:00:15.486Z,24.30
2019-06-15T09:02:46.777Z,23.80
2019-06-15T09:05:18.173Z,23.90
2019-06-15T09:07:49.869Z,23.80
2019-06-15T09:10:20.916Z,24.00
2019-06-15T09:12:52.700Z,24.10
2019-06-15T09:15:37.359Z,23.90
2019-06-15T09:18:08.801Z,24.10
2019-06-15T09:20:40.711Z,24.10
2019-06-15T09:23:12.429Z,24.30
2019-06-15T09:25:44.014Z,23.80
2019-06-15T09:28:15.230Z,23.70
2019-06-15T09:30:46.781Z,23.50
2019-06-15T09:33:17.821Z,23.60
2019-06-15T09:35:49.387Z,23.90
2019-06-15T09:38:20.424Z,23.80
2019-06-15T09:40:51.591Z,23.90
2019-06-15T09:43:22.861Z,23.80
2019-06-15T09:45:54.613Z,23.70
2019-06-15T09:48:25.882Z,23.40
2019-06-15T09:50:57.347Z,23.30
2019-06-15T09:53:28.822Z,23.60
2019-06-15T09:56:00.158Z,23.80
2019-06-15T09:58:31.393Z,23.50
2019-06-15T10:01:02.556Z,23.60
2019-06-15T10:03:34.833Z,23.60
2019-06-15T10:06:10.351Z,23.60
2019-06-15T10:08:40.426Z,23.60
2019-06-15T10:11:11.662Z,23.90
2019-06-15T10:13:43.519Z,24.20
2019-06-15T10:16:14.835Z,24.40
2019-06-15T10:18:46.330Z,24.20
2019-06-15T10:21:17.870Z,24.40
2019-06-15T10:23:49.325Z,24.40
2019-06-15T10:26:20.335Z,24.10
2019-06-15T10:28:52.839Z,24.30
2019-06-15T10:31:24.131Z,24.20
2019-06-15T10:33:55.564Z,24.20
2019-06-15T10:36:26.943Z,24.20
2019-06-15T10:38:58.653Z,24.10
2019-06-15T10:41:30.306Z,24.30
2019-06-15T10:44:01.645Z,24.40
2019-06-15T10:46:33.749Z,24.40
2019-06-15T10:49:05.345Z,24.40
2019-06-15T10:51:36.487Z,24.60
2019-06-15T10:54:07.910Z,24.40
2019-06-15T10:56:39.232Z,24.50
2019-06-15T10:59:10.377Z,24.50
2019-06-15T11:01:41.672Z,24.20
2019-06-15T11:04:12.894Z,24.40
2019-06-15T11:06:44.171Z,24.50
2019-06-15T11:09:15.621Z,24.30
2019-06-15T11:11:46.899Z,24.10
2019-06-15T11:14:18.209Z,23.80
2019-06-15T11:16:49.862Z,23.80
2019-06-15T11:19:21.084Z,23.50
2019-06-15T11:21:52.561Z,23.60
2019-06-15T11:24:23.903Z,23.60
2019-06-15T11:26:55.297Z,24.00
2019-06-15T11:29:26.086Z,23.70
2019-06-15T11:31:57.457Z,23.60
2019-06-15T11:34:28.802Z,23.80
2019-06-15T11:37:00.385Z,24.20
2019-06-15T11:39:31.724Z,24.30
2019-06-15T11:42:03.507Z,24.40
2019-06-15T11:44:34.810Z,24.80
2019-06-15T11:47:06.230Z,24.20
2019-06-15T11:49:37.383Z,24.10
2019-06-15T11:52:09.624Z,24.40
2019-06-15T11:54:45.033Z,23.70
2019-06-15T11:57:16.421Z,23.60
2019-06-15T11:59:48.262Z,23.20
2019-06-15T12:02:19.346Z,23.00
2019-06-15T12:04:58.305Z,23.40
2019-06-15T12:07:23.478Z,23.60
2019-06-15T12:09:54.938Z,23.90
2019-06-15T12:12:26.006Z,23.80
2019-06-15T12:14:57.348Z,24.40
2019-06-15T12:17:28.841Z,24.50
2019-06-15T12:20:00.312Z,24.20
2019-06-15T12:22:31.661Z,24.20
2019-06-15T12:25:02.882Z,24.10
2019-06-15T12:27:34.281Z,23.80
2019-06-15T12:30:06.523Z,23.80
2019-06-15T12:32:37.980Z,24.10
2019-06-15T12:35:09.397Z,24.20
2019-06-15T12:37:40.923Z,24.60
2019-06-15T12:40:12.345Z,24.50
2019-06-15T12:42:43.946Z,24.30
2019-06-15T12:45:15.489Z,24.90
2019-06-15T12:47:47.865Z,25.00
2019-06-15T12:50:19.445Z,24.20
2019-06-15T12:52:50.679Z,23.80
2019-06-15T12:55:22.296Z,23.90
2019-06-15T12:57:53.640Z,23.50
2019-06-15T13:00:29.658Z,23.40
2019-06-15T13:03:01.081Z,23.40
2019-06-15T13:05:32.201Z,23.60
2019-06-15T13:08:03.631Z,23.40
2019-06-15T13:10:34.950Z,23.80
2019-06-15T13:13:08.139Z,24.00
2019-06-15T13:15:40.017Z,24.40
2019-06-15T13:18:11.541Z,24.30
2019-06-15T13:20:42.816Z,24.40
2019-06-15T13:23:14.665Z,23.90
2019-06-15T13:25:46.458Z,23.60
2019-06-15T13:28:18.443Z,23.70
2019-06-15T13:30:49.643Z,23.60
2019-06-15T13:33:21.000Z,23.50
2019-06-15T13:35:52.127Z,23.70
2019-06-15T13:38:23.475Z,23.60
2019-06-15T13:40:55.696Z,23.30
2019-06-15T13:43:27.137Z,23.50
2019-06-15T13:45:58.343Z,23.60
2019-06-15T13:48:29.605Z,23.20
2019-06-15T13:51:00.993Z,23.20
2019-06-15T13:53:32.390Z,23.10
2019-06-15T13:56:04.086Z,22.90
2019-06-15T13:58:35.568Z,23.10
2019-06-15T14:01:06.905Z,22.90
2019-06-15T14:03:38.056Z,23.00
2019-06-15T14:06:09.385Z,23.10
2019-06-15T14:08:40.643Z,22.60
2019-06-15T14:11:12.221Z,22.20
2019-06-15T14:13:43.373Z,22.50
2019-06-15T14:16:14.924Z,22.60
2019-06-15T14:18:46.163Z,22.70
2019-06-15T14:21:18.502Z,22.90
2019-06-15T14:23:49.812Z,23.30
2019-06-15T14:26:21.202Z,23.20
2019-06-15T14:28:52.587Z,22.90
2019-06-15T14:31:23.720Z,22.30
2019-06-15T14:33:56.117Z,22.30
2019-06-15T14:36:27.346Z,22.20
2019-06-15T14:38:58.609Z,21.90
2019-06-15T14:41:30.090Z,22.00
2019-06-15T14:44:01.507Z,22.00
2019-06-15T14:46:32.787Z,22.20
2019-06-15T14:49:04.226Z,22.60
2019-06-15T14:51:35.794Z,21.80
2019-06-15T14:54:06.918Z,21.80
2019-06-15T14:56:41.691Z,21.90
2019-06-15T14:59:12.992Z,22.10
2019-06-15T15:01:46.849Z,22.10
2019-06-15T15:04:17.229Z,22.00
2019-06-15T15:06:49.333Z,22.10
2019-06-15T15:09:20.676Z,22.30
2019-06-15T15:11:52.172Z,22.60
2019-06-15T15:14:23.129Z,22.70
2019-06-15T15:16:56.853Z,22.80
2019-06-15T15:19:27.279Z,23.10
2019-06-15T15:21:59.140Z,23.10
2019-06-15T15:24:32.582Z,22.80
2019-06-15T15:27:03.920Z,22.70
2019-06-15T15:29:35.372Z,22.40
2019-06-15T15:32:09.180Z,22.30
2019-06-15T15:34:39.519Z,22.50
2019-06-15T15:37:10.656Z,22.80
2019-06-15T15:39:41.902Z,22.80
2019-06-15T15:42:13.338Z,22.40
2019-06-15T15:44:47.027Z,22.40
2019-06-15T15:47:17.535Z,22.50
2019-06-15T15:49:48.886Z,22.60
2019-06-15T15:52:19.950Z,22.70
2019-06-15T15:54:51.253Z,22.50
2019-06-15T15:57:22.313Z,22.00
2019-06-15T15:59:56.136Z,22.00
2019-06-15T16:02:35.450Z,22.00
2019-06-15T16:04:59.391Z,21.80
2019-06-15T16:07:30.570Z,21.90
2019-06-15T16:10:01.808Z,22.30
2019-06-15T16:12:36.091Z,22.10
2019-06-15T16:15:08.040Z,21.90
2019-06-15T16:17:39.381Z,21.90
2019-06-15T16:20:17.438Z,21.80
2019-06-15T16:22:49.207Z,21.80
2019-06-15T16:25:20.612Z,21.90
2019-06-15T16:27:51.838Z,22.00
2019-06-15T16:30:56.221Z,21.90
2019-06-15T16:33:04.393Z,22.10
2019-06-15T16:35:36.828Z,22.40
2019-06-15T16:38:08.231Z,22.00
2019-06-15T16:40:41.136Z,22.20
2019-06-15T16:43:12.515Z,22.10
2019-06-15T16:45:46.519Z,22.20
2019-06-15T16:48:18.253Z,21.80
2019-06-15T16:50:49.915Z,22.10
2019-06-15T16:53:21.009Z,21.80
2019-06-15T16:55:52.333Z,21.70
2019-06-15T16:58:26.346Z,21.70
2019-06-15T17:00:57.186Z,21.80
2019-06-15T17:03:29.783Z,21.80
2019-06-15T17:06:03.505Z,21.80
2019-06-15T17:08:36.607Z,21.80
2019-06-15T17:11:07.056Z,21.80
2019-06-15T17:13:38.422Z,21.50
2019-06-15T17:16:09.906Z,21.40
2019-06-15T17:18:41.000Z,21.60
2019-06-15T17:21:12.552Z,21.80
2019-06-15T17:23:46.553Z,21.90
2019-06-15T17:26:17.049Z,22.10
2019-06-15T17:28:48.317Z,22.00
2019-06-15T17:31:19.523Z,21.90
2019-06-15T17:33:50.864Z,21.80
2019-06-15T17:36:22.196Z,21.90
2019-06-15T17:38:53.222Z,21.70
2019-06-15T17:41:26.548Z,21.50
2019-06-15T17:43:57.382Z,21.70
2019-06-15T17:46:29.886Z,21.50
2019-06-15T17:49:01.231Z,21.30
2019-06-15T17:51:36.815Z,21.60
2019-06-15T17:54:07.622Z,21.90
2019-06-15T17:56:38.876Z,21.90
2019-06-15T17:59:16.188Z,21.60
2019-06-15T18:01:47.386Z,21.80
2019-06-15T18:04:18.925Z,21.40
2019-06-15T18:06:50.656Z,21.60
2019-06-15T18:09:22.046Z,21.80
2019-06-15T18:11:53.644Z,21.80
2019-06-15T18:14:26.368Z,21.60
2019-06-15T18:16:58.230Z,21.30
2019-06-15T18:19:29.881Z,21.10
2019-06-15T18:22:01.545Z,21.10
2019-06-15T18:24:33.736Z,21.10
2019-06-15T18:27:07.102Z,21.00
2019-06-15T18:29:38.650Z,21.00
2019-06-15T18:32:09.968Z,20.80
2019-06-15T18:34:41.915Z,20.70
2019-06-15T18:37:13.439Z,20.80
2019-06-15T18:39:46.850Z,20.90
2019-06-15T18:42:17.800Z,21.10
2019-06-15T18:44:49.265Z,21.20
2019-06-15T18:47:20.388Z,21.30
2019-06-15T18:49:52.187Z,21.30
2019-06-15T18:52:23.406Z,21.20
2019-06-15T18:54:56.633Z,21.00
2019-06-15T18:57:27.803Z,21.00
2019-06-15T18:59:58.954Z,21.20
2019-06-15T19:02:32.051Z,21.20
2019-06-15T19:05:06.350Z,21.10
2019-06-15T19:07:37.764Z,21.10
2019-06-15T19:10:09.866Z,20.90
2019-06-15T19:12:41.242Z,20.80
2019-06-15T19:15:13.593Z,20.80
2019-06-15T19:17:46.347Z,20.50
2019-06-15T19:20:17.906Z,20.50
2019-06-15T19:22:49.448Z,20.40
2019-06-15T19:25:21.642Z,20.40
2019-06-15T19:27:52.918Z,20.30
2019-06-15T19:30:26.339Z,20.30
2019-06-15T19:32:57.179Z,20.20
2019-06-15T19:35:28.045Z,20.10
2019-06-15T19:37:59.560Z,20.20
2019-06-15T19:40:31.400Z,20.30
2019-06-15T19:43:06.322Z,20.30
2019-06-15T19:45:37.188Z,20.30
2019-06-15T19:48:08.816Z,20.20
2019-06-15T19:50:40.125Z,20.40
2019-06-15T19:53:11.614Z,20.20
2019-06-15T19:55:42.864Z,20.10
2019-06-15T19:58:16.401Z,20.00
2019-06-15T20:00:50.630Z,20.10
2019-06-15T20:03:21.867Z,20.00
2019-06-15T20:05:53.238Z,20.10
2019-06-15T20:08:26.340Z,20.20
2019-06-15T20:10:57.299Z,20.10
2019-06-15T20:13:28.572Z,20.30
2019-06-15T20:15:59.825Z,20.30
2019-06-15T20:18:32.571Z,20.20
2019-06-15T20:21:04.059Z,20.20
2019-06-15T20:23:37.087Z,20.10
2019-06-15T20:26:08.285Z,20.10
2019-06-15T20:28:39.881Z,20.20
2019-06-15T20:31:11.233Z,20.00
2019-06-15T20:33:42.568Z,20.00
2019-06-15T20:36:16.046Z,19.90
2019-06-15T20:38:46.962Z,19.80
2019-06-15T20:41:19.452Z,19.90
2019-06-15T20:43:50.782Z,20.00
2019-06-15T20:46:21.829Z,20.20
2019-06-15T20:48:53.267Z,20.00
2019-06-15T20:51:24.374Z,19.90
2019-06-15T20:53:56.692Z,19.90
2019-06-15T20:56:27.884Z,20.00
2019-06-15T20:58:59.648Z,20.00
2019-06-15T21:01:31.125Z,20.00
2019-06-15T21:04:02.360Z,20.10
2019-06-15T21:06:33.752Z,20.10
2019-06-15T21:09:06.754Z,20.10
2019-06-15T21:11:38.001Z,20.10
2019-06-15T21:14:09.226Z,20.10
2019-06-15T21:16:40.502Z,20.10
2019-06-15T21:19:11.744Z,20.00
2019-06-15T21:21:47.186Z,20.10
2019-06-15T21:24:19.325Z,20.10
2019-06-15T21:26:50.606Z,20.10
2019-06-15T21:29:22.432Z,20.10
2019-06-15T21:31:53.721Z,19.90
2019-06-15T21:34:26.498Z,19.90
2019-06-15T21:36:58.080Z,20.00
2019-06-15T21:39:29.190Z,20.00
2019-06-15T21:42:00.476Z,20.00
2019-06-15T21:44:31.724Z,20.00
2019-06-15T21:47:02.861Z,20.00
2019-06-15T21:49:35.866Z,20.00
2019-06-15T21:52:09.038Z,20.00
2019-06-15T21:54:40.722Z,19.90
2019-06-15T21:57:12.054Z,20.00
2019-06-15T21:59:43.359Z,19.90
2019-06-15T22:02:15.867Z,19.90
2019-06-15T22:04:47.388Z,19.80
2019-06-15T22:07:19.370Z,19.90
2019-06-15T22:09:51.626Z,19.70
2019-06-15T22:12:22.839Z,19.70
2019-06-15T22:14:54.093Z,19.80
2019-06-15T22:17:26.232Z,19.90
2019-06-15T22:19:57.699Z,20.10
2019-06-15T22:22:28.862Z,20.00
2019-06-15T22:25:03.773Z,20.10
2019-06-15T22:27:36.233Z,20.00
2019-06-15T22:30:08.247Z,20.00
2019-06-15T22:32:39.869Z,20.00
2019-06-15T22:35:11.293Z,19.80
2019-06-15T22:37:42.591Z,19.80
2019-06-15T22:40:16.357Z,19.80
2019-06-15T22:42:47.384Z,19.80
2019-06-15T22:45:19.508Z,19.80
2019-06-15T22:47:50.860Z,19.70
2019-06-15T22:50:21.912Z,19.60
2019-06-15T22:52:53.015Z,19.60
2019-06-15T22:55:26.081Z,19.60
2019-06-15T22:57:57.465Z,19.50
2019-06-15T23:00:28.374Z,19.40
2019-06-15T23:03:00.038Z,19.40
2019-06-15T23:05:31.280Z,19.40
2019-06-15T23:08:02.634Z,19.40
2019-06-15T23:10:53.793Z,19.40
2019-06-15T23:13:26.125Z,19.40
2019-06-15T23:15:57.517Z,19.50
2019-06-15T23:18:28.479Z,19.60
2019-06-15T23:20:59.704Z,19.40
2019-06-15T23:23:30.845Z,19.30
2019-06-15T23:26:02.172Z,19.20
2019-06-15T23:28:35.806Z,19.30
2019-06-15T23:31:07.500Z,19.30
2019-06-15T23:33:38.889Z,19.40
2019-06-15T23:36:17.092Z,19.60
2019-06-15T23:38:48.539Z,19.60
2019-06-15T23:41:19.988Z,19.60
2019-06-15T23:43:51.331Z,19.50
2019-06-15T23:46:22.612Z,19.50
2019-06-15T23:48:56.611Z,19.50
2019-06-15T23:51:28.725Z,19.50
2019-06-15T23:54:00.100Z,19.50
2019-06-15T23:56:31.463Z,19.50
2019-06-15T23:59:02.767Z,19.50
